sensor_id;sensor_type;location;lat;lon;timestamp;pressure;altitude;pressure_sealevel;temperature;humidity
46714;BME280;32445;51.376;10.874;2023-04-03T00:00:16;100675.63;;;5.00;48.30
46714;BME280;32445;51.376;10.874;2023-04-03T00:03:17;100674.72;;;4.95;48.28
46714;BME280;32445;51.376;10.874;2023-04-03T00:06:18;100676.25;;;4.85;48.36
46714;BME280;32445;51.376;10.874;2023-04-03T00:09:19;100677.94;;;4.81;48.81
46714;BME280;32445;51.376;10.874;2023-04-03T00:12:19;100673.47;;;4.73;48.96
46714;BME280;32445;51.376;10.874;2023-04-03T00:15:20;100671.66;;;4.67;48.85
46714;BME280;32445;51.376;10.874;2023-04-03T00:18:20;100670.72;;;4.60;49.28
46714;BME280;32445;51.376;10.874;2023-04-03T00:21:21;100678.38;;;4.57;49.36
46714;BME280;32445;51.376;10.874;2023-04-03T00:24:21;100679.19;;;4.55;48.88
46714;BME280;32445;51.376;10.874;2023-04-03T00:27:22;100686.00;;;4.53;48.71
46714;BME280;32445;51.376;10.874;2023-04-03T00:30:23;100690.25;;;4.50;49.27
46714;BME280;32445;51.376;10.874;2023-04-03T00:33:23;100681.56;;;4.44;49.43
46714;BME280;32445;51.376;10.874;2023-04-03T00:36:24;100689.22;;;4.41;49.23
46714;BME280;32445;51.376;10.874;2023-04-03T00:39:25;100689.25;;;4.42;49.11
46714;BME280;32445;51.376;10.874;2023-04-03T00:42:26;100690.06;;;4.40;48.82
46714;BME280;32445;51.376;10.874;2023-04-03T00:45:38;100682.28;;;4.35;49.56
46714;BME280;32445;51.376;10.874;2023-04-03T00:48:47;100684.81;;;4.33;49.91
46714;BME280;32445;51.376;10.874;2023-04-03T00:51:48;100683.94;;;4.31;49.67
46714;BME280;32445;51.376;10.874;2023-04-03T00:54:50;100687.31;;;4.29;49.63
46714;BME280;32445;51.376;10.874;2023-04-03T00:57:52;100684.69;;;4.26;49.58
46714;BME280;32445;51.376;10.874;2023-04-03T01:00:55;100682.91;;;4.23;49.74
46714;BME280;32445;51.376;10.874;2023-04-03T01:04:01;100685.38;;;4.17;49.37
46714;BME280;32445;51.376;10.874;2023-04-03T01:07:28;100687.81;;;4.11;49.46
46714;BME280;32445;51.376;10.874;2023-04-03T01:10:29;100691.28;;;4.11;49.51
46714;BME280;32445;51.376;10.874;2023-04-03T01:13:32;100685.16;;;4.06;50.14
46714;BME280;32445;51.376;10.874;2023-04-03T01:16:32;100681.75;;;4.06;49.94
46714;BME280;32445;51.376;10.874;2023-04-03T01:19:33;100686.91;;;4.07;50.32
46714;BME280;32445;51.376;10.874;2023-04-03T01:25:56;100697.94;;;4.02;50.57
46714;BME280;32445;51.376;10.874;2023-04-03T01:28:59;100693.47;;;3.93;50.20
46714;BME280;32445;51.376;10.874;2023-04-03T01:32:01;100693.50;;;3.94;50.27
46714;BME280;32445;51.376;10.874;2023-04-03T01:35:02;100691.03;;;3.99;50.10
46714;BME280;32445;51.376;10.874;2023-04-03T01:38:02;100700.50;;;4.02;50.28
46714;BME280;32445;51.376;10.874;2023-04-03T01:41:03;100698.06;;;4.09;50.36
46714;BME280;32445;51.376;10.874;2023-04-03T01:44:03;100692.09;;;4.10;50.00
46714;BME280;32445;51.376;10.874;2023-04-03T01:47:05;100696.44;;;4.13;49.88
46714;BME280;32445;51.376;10.874;2023-04-03T01:50:06;100693.00;;;4.14;50.33
46714;BME280;32445;51.376;10.874;2023-04-03T01:53:07;100699.88;;;4.13;49.88
46714;BME280;32445;51.376;10.874;2023-04-03T01:56:08;100711.84;;;4.13;49.94
46714;BME280;32445;51.376;10.874;2023-04-03T01:59:08;100709.25;;;4.11;49.40
46714;BME280;32445;51.376;10.874;2023-04-03T02:02:09;100710.91;;;4.09;49.60
46714;BME280;32445;51.376;10.874;2023-04-03T02:05:09;100722.00;;;4.07;49.94
46714;BME280;32445;51.376;10.874;2023-04-03T02:08:10;100720.16;;;4.01;49.89
46714;BME280;32445;51.376;10.874;2023-04-03T02:11:11;100722.69;;;3.98;49.46
46714;BME280;32445;51.376;10.874;2023-04-03T02:14:12;100728.66;;;3.95;49.67
46714;BME280;32445;51.376;10.874;2023-04-03T02:17:12;100728.56;;;3.92;49.81
46714;BME280;32445;51.376;10.874;2023-04-03T02:20:12;100729.28;;;3.87;49.73
46714;BME280;32445;51.376;10.874;2023-04-03T02:23:13;100728.38;;;3.83;49.47
46714;BME280;32445;51.376;10.874;2023-04-03T02:26:15;100731.72;;;3.79;49.58
46714;BME280;32445;51.376;10.874;2023-04-03T02:29:16;100729.09;;;3.76;50.05
46714;BME280;32445;51.376;10.874;2023-04-03T02:32:16;100733.25;;;3.71;50.17
46714;BME280;32445;51.376;10.874;2023-04-03T02:35:16;100733.19;;;3.68;49.60
46714;BME280;32445;51.376;10.874;2023-04-03T02:38:17;100729.66;;;3.62;50.08
46714;BME280;32445;51.376;10.874;2023-04-03T02:41:17;100735.59;;;3.60;50.07
46714;BME280;32445;51.376;10.874;2023-04-03T02:44:17;100732.03;;;3.55;49.59
46714;BME280;32445;51.376;10.874;2023-04-03T02:47:18;100734.53;;;3.50;49.46
46714;BME280;32445;51.376;10.874;2023-04-03T02:50:19;100737.00;;;3.45;50.29
46714;BME280;32445;51.376;10.874;2023-04-03T02:53:19;100742.00;;;3.41;50.06
46714;BME280;32445;51.376;10.874;2023-04-03T02:56:20;100737.59;;;3.35;50.41
46714;BME280;32445;51.376;10.874;2023-04-03T02:59:21;100732.31;;;3.29;49.81
46714;BME280;32445;51.376;10.874;2023-04-03T03:02:21;100727.94;;;3.25;49.76
46714;BME280;32445;51.376;10.874;2023-04-03T03:05:21;100736.38;;;3.19;50.18
46714;BME280;32445;51.376;10.874;2023-04-03T03:08:22;100736.13;;;3.08;50.74
46714;BME280;32445;51.376;10.874;2023-04-03T03:11:22;100739.38;;;3.01;50.45
46714;BME280;32445;51.376;10.874;2023-04-03T03:14:23;100744.50;;;3.01;50.59
46714;BME280;32445;51.376;10.874;2023-04-03T03:17:24;100728.22;;;3.01;50.65
46714;BME280;32445;51.376;10.874;2023-04-03T03:20:24;100738.44;;;2.99;50.30
46714;BME280;32445;51.376;10.874;2023-04-03T03:23:26;100738.38;;;2.96;50.58
46714;BME280;32445;51.376;10.874;2023-04-03T03:26:26;100740.09;;;2.96;50.44
46714;BME280;32445;51.376;10.874;2023-04-03T03:29:27;100751.94;;;2.92;50.40
46714;BME280;32445;51.376;10.874;2023-04-03T03:32:27;100750.16;;;2.89;50.02
46714;BME280;32445;51.376;10.874;2023-04-03T03:35:27;100748.38;;;2.85;50.25
46714;BME280;32445;51.376;10.874;2023-04-03T03:38:28;100747.47;;;2.83;50.61
46714;BME280;32445;51.376;10.874;2023-04-03T03:41:28;100757.66;;;2.80;50.66
46714;BME280;32445;51.376;10.874;2023-04-03T03:44:28;100757.59;;;2.79;50.81
46714;BME280;32445;51.376;10.874;2023-04-03T03:47:29;100757.50;;;2.74;50.96
46714;BME280;32445;51.376;10.874;2023-04-03T03:50:29;100760.00;;;2.71;50.79
46714;BME280;32445;51.376;10.874;2023-04-03T03:53:30;100758.25;;;2.70;50.56
46714;BME280;32445;51.376;10.874;2023-04-03T03:56:31;100773.59;;;2.68;50.88
46714;BME280;32445;51.376;10.874;2023-04-03T03:59:31;100779.47;;;2.64;50.69
46714;BME280;32445;51.376;10.874;2023-04-03T04:02:31;100770.81;;;2.60;51.10
46714;BME280;32445;51.376;10.874;2023-04-03T04:05:32;100780.97;;;2.57;51.07
46714;BME280;32445;51.376;10.874;2023-04-03T04:08:32;100786.03;;;2.54;51.01
46714;BME280;32445;51.376;10.874;2023-04-03T04:11:32;100789.38;;;2.52;50.84
46714;BME280;32445;51.376;10.874;2023-04-03T04:14:33;100783.31;;;2.48;51.23
46714;BME280;32445;51.376;10.874;2023-04-03T04:17:34;100783.22;;;2.45;50.71
46714;BME280;32445;51.376;10.874;2023-04-03T04:20:35;100780.56;;;2.42;50.92
46714;BME280;32445;51.376;10.874;2023-04-03T04:23:35;100783.00;;;2.37;50.89
46714;BME280;32445;51.376;10.874;2023-04-03T04:26:36;100784.63;;;2.34;50.91
46714;BME280;32445;51.376;10.874;2023-04-03T04:29:37;100788.81;;;2.32;50.93
46714;BME280;32445;51.376;10.874;2023-04-03T04:32:37;100792.16;;;2.29;51.12
46714;BME280;32445;51.376;10.874;2023-04-03T04:35:38;100789.47;;;2.24;51.34
46714;BME280;32445;51.376;10.874;2023-04-03T04:38:38;100791.13;;;2.22;51.10
46714;BME280;32445;51.376;10.874;2023-04-03T04:41:38;100785.94;;;2.19;51.47
46714;BME280;32445;51.376;10.874;2023-04-03T04:44:39;100796.94;;;2.17;51.53
46714;BME280;32445;51.376;10.874;2023-04-03T04:47:39;100801.16;;;2.15;51.50
46714;BME280;32445;51.376;10.874;2023-04-03T04:50:40;100796.81;;;2.12;51.25
46714;BME280;32445;51.376;10.874;2023-04-03T04:53:41;100795.91;;;2.10;51.50
46714;BME280;32445;51.376;10.874;2023-04-03T04:56:41;100794.94;;;2.06;51.15
46714;BME280;32445;51.376;10.874;2023-04-03T04:59:41;100805.97;;;2.04;51.64
46714;BME280;32445;51.376;10.874;2023-04-03T05:02:42;100806.75;;;2.01;51.34
46714;BME280;32445;51.376;10.874;2023-04-03T05:05:42;100812.63;;;1.99;51.35
46714;BME280;32445;51.376;10.874;2023-04-03T05:08:42;100819.38;;;1.95;51.85
46714;BME280;32445;51.376;10.874;2023-04-03T05:11:43;100817.59;;;1.93;51.40
46714;BME280;32445;51.376;10.874;2023-04-03T05:14:43;100821.78;;;1.90;51.70
46714;BME280;32445;51.376;10.874;2023-04-03T05:17:43;100826.00;;;1.88;51.59
46714;BME280;32445;51.376;10.874;2023-04-03T05:20:44;100822.53;;;1.86;51.54
46714;BME280;32445;51.376;10.874;2023-04-03T05:23:44;100819.03;;;1.84;52.23
46714;BME280;32445;51.376;10.874;2023-04-03T05:26:44;100815.63;;;1.84;52.12
46714;BME280;32445;51.376;10.874;2023-04-03T05:29:45;100814.69;;;1.82;51.96
46714;BME280;32445;51.376;10.874;2023-04-03T05:32:45;100812.91;;;1.79;52.01
46714;BME280;32445;51.376;10.874;2023-04-03T05:35:45;100812.84;;;1.78;51.62
46714;BME280;32445;51.376;10.874;2023-04-03T05:38:46;100817.97;;;1.78;51.81
46714;BME280;32445;51.376;10.874;2023-04-03T05:41:46;100827.34;;;1.77;52.08
46714;BME280;32445;51.376;10.874;2023-04-03T05:44:48;100827.34;;;1.77;52.16
46714;BME280;32445;51.376;10.874;2023-04-03T05:47:50;100833.31;;;1.78;51.81
46714;BME280;32445;51.376;10.874;2023-04-03T05:50:50;100834.16;;;1.77;51.40
46714;BME280;32445;51.376;10.874;2023-04-03T05:53:54;100837.53;;;1.76;51.81
46714;BME280;32445;51.376;10.874;2023-04-03T05:56:56;100842.72;;;1.77;52.04
46714;BME280;32445;51.376;10.874;2023-04-03T05:59:57;100834.16;;;1.77;52.36
46714;BME280;32445;51.376;10.874;2023-04-03T06:02:57;100840.97;;;1.76;52.48
46714;BME280;32445;51.376;10.874;2023-04-03T06:05:57;100846.03;;;1.75;52.42
46714;BME280;32445;51.376;10.874;2023-04-03T06:08:58;100840.91;;;1.75;52.50
46714;BME280;32445;51.376;10.874;2023-04-03T06:11:58;100840.06;;;1.74;52.16
46714;BME280;32445;51.376;10.874;2023-04-03T06:14:59;100852.09;;;1.77;52.55
46714;BME280;32445;51.376;10.874;2023-04-03T06:17:59;100864.06;;;1.78;52.19
46714;BME280;32445;51.376;10.874;2023-04-03T06:21:00;100853.72;;;1.75;52.87
46714;BME280;32445;51.376;10.874;2023-04-03T06:24:03;100863.88;;;1.71;52.61
46714;BME280;32445;51.376;10.874;2023-04-03T06:27:04;100871.59;;;1.73;52.55
46714;BME280;32445;51.376;10.874;2023-04-03T06:30:06;100873.44;;;1.77;52.27
46714;BME280;32445;51.376;10.874;2023-04-03T06:33:07;100870.88;;;1.77;52.46
46714;BME280;32445;51.376;10.874;2023-04-03T06:36:09;100873.47;;;1.79;52.68
46714;BME280;32445;51.376;10.874;2023-04-03T06:39:15;100871.91;;;1.82;52.30
46714;BME280;32445;51.376;10.874;2023-04-03T06:42:15;100872.91;;;1.87;52.71
46714;BME280;32445;51.376;10.874;2023-04-03T06:45:16;100876.47;;;1.93;52.53
46714;BME280;32445;51.376;10.874;2023-04-03T06:48:16;100880.84;;;1.95;52.55
46714;BME280;32445;51.376;10.874;2023-04-03T06:51:23;100888.53;;;1.95;52.48
46714;BME280;32445;51.376;10.874;2023-04-03T06:54:23;100884.34;;;1.99;53.17
46714;BME280;32445;51.376;10.874;2023-04-03T06:57:24;100892.97;;;2.01;53.00
46714;BME280;32445;51.376;10.874;2023-04-03T07:00:25;100891.44;;;2.07;52.61
46714;BME280;32445;51.376;10.874;2023-04-03T07:03:27;100901.09;;;2.16;52.79
46714;BME280;32445;51.376;10.874;2023-04-03T07:06:28;100897.03;;;2.23;53.06
46714;BME280;32445;51.376;10.874;2023-04-03T07:09:28;100901.47;;;2.29;52.50
46714;BME280;32445;51.376;10.874;2023-04-03T07:12:29;100899.03;;;2.33;52.69
46714;BME280;32445;51.376;10.874;2023-04-03T07:15:29;100902.63;;;2.38;53.13
46714;BME280;32445;51.376;10.874;2023-04-03T07:18:31;100905.41;;;2.46;52.57
46714;BME280;32445;51.376;10.874;2023-04-03T07:21:31;100924.38;;;2.51;52.96
46714;BME280;32445;51.376;10.874;2023-04-03T07:24:31;100911.91;;;2.64;53.42
46714;BME280;32445;51.376;10.874;2023-04-03T07:27:32;100912.97;;;2.72;52.86
46714;BME280;32445;51.376;10.874;2023-04-03T07:30:33;100914.94;;;2.81;52.62
46714;BME280;32445;51.376;10.874;2023-04-03T07:33:34;100924.50;;;2.86;52.41
46714;BME280;32445;51.376;10.874;2023-04-03T07:36:35;100933.28;;;2.94;52.29
46714;BME280;32445;51.376;10.874;2023-04-03T07:39:36;100931.84;;;3.04;52.17
46714;BME280;32445;51.376;10.874;2023-04-03T07:42:36;100936.44;;;3.16;52.57
46714;BME280;32445;51.376;10.874;2023-04-03T07:45:38;100934.88;;;3.21;51.99
46714;BME280;32445;51.376;10.874;2023-04-03T07:48:38;100941.16;;;3.33;52.62
46714;BME280;32445;51.376;10.874;2023-04-03T07:51:38;100929.38;;;3.41;51.61
46714;BME280;32445;51.376;10.874;2023-04-03T07:54:39;100927.84;;;3.47;51.91
46714;BME280;32445;51.376;10.874;2023-04-03T07:57:40;100931.63;;;3.62;52.36
46714;BME280;32445;51.376;10.874;2023-04-03T08:00:41;100929.34;;;3.73;51.75
46714;BME280;32445;51.376;10.874;2023-04-03T08:03:41;100933.94;;;3.86;51.52
46714;BME280;32445;51.376;10.874;2023-04-03T08:06:42;100937.75;;;4.02;51.21
46714;BME280;32445;51.376;10.874;2023-04-03T08:09:42;100932.84;;;4.11;51.10
46714;BME280;32445;51.376;10.874;2023-04-03T08:12:45;100940.78;;;4.22;50.76
46714;BME280;32445;51.376;10.874;2023-04-03T08:15:46;100928.16;;;4.31;50.63
46714;BME280;32445;51.376;10.874;2023-04-03T08:18:47;100935.16;;;4.39;50.58
46714;BME280;32445;51.376;10.874;2023-04-03T08:21:48;100937.84;;;4.45;50.44
46714;BME280;32445;51.376;10.874;2023-04-03T08:24:48;100938.09;;;4.56;50.24
46714;BME280;32445;51.376;10.874;2023-04-03T08:27:48;100931.44;;;4.67;50.07
46714;BME280;32445;51.376;10.874;2023-04-03T08:30:49;100936.03;;;4.80;49.60
46714;BME280;32445;51.376;10.874;2023-04-03T08:33:51;100928.59;;;4.94;49.56
46714;BME280;32445;51.376;10.874;2023-04-03T08:36:51;100934.00;;;5.08;48.74
46714;BME280;32445;51.376;10.874;2023-04-03T08:39:51;100937.75;;;5.26;49.17
46714;BME280;32445;51.376;10.874;2023-04-03T08:43:02;100935.50;;;5.44;48.63
46714;BME280;32445;51.376;10.874;2023-04-03T08:46:05;100941.00;;;5.64;48.27
46714;BME280;32445;51.376;10.874;2023-04-03T08:49:16;100929.13;;;5.72;48.22
46714;BME280;32445;51.376;10.874;2023-04-03T08:55:33;100940.66;;;5.93;47.34
46714;BME280;32445;51.376;10.874;2023-04-03T08:58:47;100939.09;;;6.04;47.61
46714;BME280;32445;51.376;10.874;2023-04-03T09:01:49;100934.16;;;6.17;47.82
46714;BME280;32445;51.376;10.874;2023-04-03T09:04:51;100933.34;;;6.19;47.03
46714;BME280;32445;51.376;10.874;2023-04-03T09:07:58;100936.81;;;6.23;46.82
46714;BME280;32445;51.376;10.874;2023-04-03T09:11:15;100929.03;;;6.20;46.26
46714;BME280;32445;51.376;10.874;2023-04-03T09:14:31;100931.63;;;6.20;45.77
46714;BME280;32445;51.376;10.874;2023-04-03T09:17:53;100932.34;;;6.11;45.16
46714;BME280;32445;51.376;10.874;2023-04-03T09:21:14;100940.06;;;6.10;45.13
46714;BME280;32445;51.376;10.874;2023-04-03T09:24:17;100939.28;;;6.15;45.67
46714;BME280;32445;51.376;10.874;2023-04-03T09:27:18;100928.25;;;6.24;45.43
46714;BME280;32445;51.376;10.874;2023-04-03T09:30:24;100925.69;;;6.26;44.59
46714;BME280;32445;51.376;10.874;2023-04-03T09:33:26;100920.44;;;6.19;44.19
46714;BME280;32445;51.376;10.874;2023-04-03T09:36:47;100933.44;;;6.27;45.15
46714;BME280;32445;51.376;10.874;2023-04-03T09:39:56;100915.50;;;6.35;44.75
46714;BME280;32445;51.376;10.874;2023-04-03T09:42:59;100923.22;;;6.33;44.63
46714;BME280;32445;51.376;10.874;2023-04-03T09:49:23;100921.59;;;6.40;45.02
46714;BME280;32445;51.376;10.874;2023-04-03T09:52:25;100916.53;;;6.46;44.56
46714;BME280;32445;51.376;10.874;2023-04-03T09:55:27;100916.59;;;6.51;44.80
46714;BME280;32445;51.376;10.874;2023-04-03T09:58:32;100917.50;;;6.57;43.98
46714;BME280;32445;51.376;10.874;2023-04-03T10:01:36;100915.88;;;6.63;44.05
46714;BME280;32445;51.376;10.874;2023-04-03T10:04:40;100913.44;;;6.73;44.07
46714;BME280;32445;51.376;10.874;2023-04-03T10:07:40;100922.09;;;6.82;44.11
46714;BME280;32445;51.376;10.874;2023-04-03T10:10:47;100916.06;;;6.80;43.73
46714;BME280;32445;51.376;10.874;2023-04-03T10:14:16;100907.50;;;6.82;43.69
46714;BME280;32445;51.376;10.874;2023-04-03T10:20:48;100901.88;;;7.19;43.64
46714;BME280;32445;51.376;10.874;2023-04-03T10:24:18;100904.72;;;7.45;43.47
46714;BME280;32445;51.376;10.874;2023-04-03T10:31:02;100906.78;;;7.89;41.82
46714;BME280;32445;51.376;10.874;2023-04-03T10:37:24;100892.28;;;8.08;42.04
46714;BME280;32445;51.376;10.874;2023-04-03T10:53:57;100888.88;;;8.14;41.49
46714;BME280;32445;51.376;10.874;2023-04-03T10:57:05;100882.00;;;8.22;42.02
46714;BME280;32445;51.376;10.874;2023-04-03T11:03:26;100872.63;;;8.43;41.52
46714;BME280;32445;51.376;10.874;2023-04-03T11:07:00;100872.69;;;8.47;41.00
46714;BME280;32445;51.376;10.874;2023-04-03T11:10:44;100873.66;;;8.76;41.40
46714;BME280;32445;51.376;10.874;2023-04-03T11:13:52;100858.19;;;9.07;40.05
46714;BME280;32445;51.376;10.874;2023-04-03T11:20:19;100864.25;;;9.18;40.11
46714;BME280;32445;51.376;10.874;2023-04-03T11:23:24;100853.88;;;9.18;39.72
46714;BME280;32445;51.376;10.874;2023-04-03T11:26:31;100849.56;;;9.14;39.41
46714;BME280;32445;51.376;10.874;2023-04-03T11:29:38;100846.13;;;9.23;40.45
46714;BME280;32445;51.376;10.874;2023-04-03T11:36:09;100843.53;;;9.37;39.56
46714;BME280;32445;51.376;10.874;2023-04-03T11:39:18;100847.00;;;9.42;39.27
46714;BME280;32445;51.376;10.874;2023-04-03T11:42:36;100845.25;;;9.45;39.02
46714;BME280;32445;51.376;10.874;2023-04-03T11:45:55;100840.94;;;9.49;40.22
46714;BME280;32445;51.376;10.874;2023-04-03T11:48:58;100836.63;;;9.57;39.74
46714;BME280;32445;51.376;10.874;2023-04-03T11:51:59;100838.34;;;9.70;39.47
46714;BME280;32445;51.376;10.874;2023-04-03T11:54:59;100835.72;;;9.81;39.69
46714;BME280;32445;51.376;10.874;2023-04-03T12:01:10;100828.75;;;10.10;39.16
46714;BME280;32445;51.376;10.874;2023-04-03T12:04:13;100824.38;;;10.24;38.65
46714;BME280;32445;51.376;10.874;2023-04-03T12:07:18;100832.16;;;10.30;38.22
46714;BME280;32445;51.376;10.874;2023-04-03T12:10:19;100826.13;;;10.24;38.13
46714;BME280;32445;51.376;10.874;2023-04-03T12:13:20;100820.06;;;10.20;38.78
46714;BME280;32445;51.376;10.874;2023-04-03T12:19:34;100826.91;;;10.50;40.67
46714;BME280;32445;51.376;10.874;2023-04-03T12:22:34;100820.72;;;10.75;39.60
46714;BME280;32445;51.376;10.874;2023-04-03T12:25:49;100803.31;;;10.92;39.31
46714;BME280;32445;51.376;10.874;2023-04-03T12:28:51;100810.84;;;11.24;39.52
46714;BME280;32445;51.376;10.874;2023-04-03T12:35:29;100805.44;;;11.51;37.48
46714;BME280;32445;51.376;10.874;2023-04-03T12:39:02;100810.66;;;11.46;36.56
46714;BME280;32445;51.376;10.874;2023-04-03T12:42:21;100803.69;;;11.51;37.48
46714;BME280;32445;51.376;10.874;2023-04-03T12:45:25;100806.19;;;11.64;38.44
46714;BME280;32445;51.376;10.874;2023-04-03T12:48:28;100787.00;;;11.75;38.21
46714;BME280;32445;51.376;10.874;2023-04-03T12:51:44;100792.09;;;11.86;38.41
46714;BME280;32445;51.376;10.874;2023-04-03T12:54:46;100784.06;;;12.08;37.47
46714;BME280;32445;51.376;10.874;2023-04-03T12:57:46;100784.69;;;12.28;37.99
46714;BME280;32445;51.376;10.874;2023-04-03T13:01:09;100776.69;;;12.42;37.01
46714;BME280;32445;51.376;10.874;2023-04-03T13:04:12;100783.31;;;12.67;38.55
46714;BME280;32445;51.376;10.874;2023-04-03T13:10:25;100779.28;;;13.02;36.82
46714;BME280;32445;51.376;10.874;2023-04-03T13:13:26;100787.88;;;13.10;36.41
46714;BME280;32445;51.376;10.874;2023-04-03T13:16:26;100778.19;;;13.18;36.69
46714;BME280;32445;51.376;10.874;2023-04-03T13:19:27;100775.56;;;13.16;36.27
46714;BME280;32445;51.376;10.874;2023-04-03T13:22:38;100779.25;;;13.05;34.62
46714;BME280;32445;51.376;10.874;2023-04-03T13:25:44;100773.41;;;12.89;33.99
46714;BME280;32445;51.376;10.874;2023-04-03T13:28:46;100770.00;;;12.87;35.27
46714;BME280;32445;51.376;10.874;2023-04-03T13:31:53;100769.91;;;12.91;35.36
46714;BME280;32445;51.376;10.874;2023-04-03T13:34:54;100766.41;;;12.94;36.07
46714;BME280;32445;51.376;10.874;2023-04-03T13:37:57;100775.94;;;12.93;36.26
46714;BME280;32445;51.376;10.874;2023-04-03T13:41:00;100772.31;;;13.04;35.95
46714;BME280;32445;51.376;10.874;2023-04-03T13:44:37;100761.78;;;13.10;35.00
46714;BME280;32445;51.376;10.874;2023-04-03T13:47:42;100767.66;;;13.23;35.48
46714;BME280;32445;51.376;10.874;2023-04-03T13:50:53;100767.75;;;13.18;33.93
46714;BME280;32445;51.376;10.874;2023-04-03T13:54:00;100766.94;;;13.14;34.91
46714;BME280;32445;51.376;10.874;2023-04-03T13:57:01;100769.72;;;13.02;35.03
46714;BME280;32445;51.376;10.874;2023-04-03T14:00:20;100774.41;;;12.80;33.01
46714;BME280;32445;51.376;10.874;2023-04-03T14:03:44;100781.50;;;12.70;33.87
46714;BME280;32445;51.376;10.874;2023-04-03T14:06:46;100771.19;;;12.64;34.21
46714;BME280;32445;51.376;10.874;2023-04-03T14:09:46;100769.53;;;12.57;35.81
46714;BME280;32445;51.376;10.874;2023-04-03T14:12:47;100765.94;;;12.66;35.85
46714;BME280;32445;51.376;10.874;2023-04-03T14:15:48;100755.44;;;12.70;34.73
46714;BME280;32445;51.376;10.874;2023-04-03T14:18:51;100768.34;;;12.78;34.88
46714;BME280;32445;51.376;10.874;2023-04-03T14:21:53;100763.88;;;12.86;35.34
46714;BME280;32445;51.376;10.874;2023-04-03T14:24:54;100766.66;;;12.77;35.78
46714;BME280;32445;51.376;10.874;2023-04-03T14:27:55;100761.47;;;12.75;35.50
46714;BME280;32445;51.376;10.874;2023-04-03T14:30:55;100759.78;;;12.71;35.04
46714;BME280;32445;51.376;10.874;2023-04-03T14:33:56;100762.44;;;12.68;35.75
46714;BME280;32445;51.376;10.874;2023-04-03T14:36:56;100759.03;;;12.63;35.94
46714;BME280;32445;51.376;10.874;2023-04-03T14:39:59;100754.88;;;12.51;34.61
46714;BME280;32445;51.376;10.874;2023-04-03T14:42:59;100754.88;;;12.51;35.07
46714;BME280;32445;51.376;10.874;2023-04-03T14:46:00;100754.81;;;12.54;35.21
46714;BME280;32445;51.376;10.874;2023-04-03T14:49:00;100749.50;;;12.60;35.88
46714;BME280;32445;51.376;10.874;2023-04-03T14:52:01;100745.09;;;12.66;35.20
46714;BME280;32445;51.376;10.874;2023-04-03T14:55:05;100742.47;;;12.67;34.76
46714;BME280;32445;51.376;10.874;2023-04-03T14:58:11;100736.41;;;12.68;35.15
46714;BME280;32445;51.376;10.874;2023-04-03T15:01:12;100737.28;;;12.67;35.28
46714;BME280;32445;51.376;10.874;2023-04-03T15:04:15;100738.16;;;12.64;34.90
46714;BME280;32445;51.376;10.874;2023-04-03T15:07:16;100737.50;;;12.50;34.60
46714;BME280;32445;51.376;10.874;2023-04-03T15:10:19;100735.03;;;12.42;34.71
46714;BME280;32445;51.376;10.874;2023-04-03T15:13:21;100725.59;;;12.32;34.02
46714;BME280;32445;51.376;10.874;2023-04-03T15:16:21;100726.59;;;12.23;35.12
46714;BME280;32445;51.376;10.874;2023-04-03T15:19:23;100733.44;;;12.29;35.42
46714;BME280;32445;51.376;10.874;2023-04-03T15:22:23;100735.13;;;12.35;35.85
46714;BME280;32445;51.376;10.874;2023-04-03T15:25:24;100736.03;;;12.34;35.19
46714;BME280;32445;51.376;10.874;2023-04-03T15:28:44;100736.97;;;12.28;34.38
46714;BME280;32445;51.376;10.874;2023-04-03T15:31:44;100745.66;;;12.27;34.92
46714;BME280;32445;51.376;10.874;2023-04-03T15:34:45;100726.78;;;12.11;35.07
46714;BME280;32445;51.376;10.874;2023-04-03T15:37:45;100731.19;;;12.04;34.80
46714;BME280;32445;51.376;10.874;2023-04-03T15:40:46;100733.81;;;12.03;34.97
46714;BME280;32445;51.376;10.874;2023-04-03T15:43:47;100730.38;;;12.01;35.40
46714;BME280;32445;51.376;10.874;2023-04-03T15:46:48;100731.25;;;12.00;34.77
46714;BME280;32445;51.376;10.874;2023-04-03T15:49:51;100737.38;;;11.92;34.11
46714;BME280;32445;51.376;10.874;2023-04-03T15:52:52;100733.13;;;11.85;34.50
46714;BME280;32445;51.376;10.874;2023-04-03T15:55:54;100735.78;;;11.79;34.58
46714;BME280;32445;51.376;10.874;2023-04-03T15:58:54;100741.91;;;11.72;34.34
46714;BME280;32445;51.376;10.874;2023-04-03T16:01:55;100742.88;;;11.68;34.62
46714;BME280;32445;51.376;10.874;2023-04-03T16:04:55;100739.50;;;11.58;34.67
46714;BME280;32445;51.376;10.874;2023-04-03T16:07:57;100731.72;;;11.52;34.98
46714;BME280;32445;51.376;10.874;2023-04-03T16:10:57;100737.00;;;11.47;35.72
46714;BME280;32445;51.376;10.874;2023-04-03T16:13:58;100730.06;;;11.45;36.01
46714;BME280;32445;51.376;10.874;2023-04-03T16:16:58;100731.84;;;11.41;35.89
46714;BME280;32445;51.376;10.874;2023-04-03T16:20:00;100727.53;;;11.38;35.64
46714;BME280;32445;51.376;10.874;2023-04-03T16:23:00;100732.88;;;11.28;34.46
46714;BME280;32445;51.376;10.874;2023-04-03T16:26:01;100731.19;;;11.20;35.38
46714;BME280;32445;51.376;10.874;2023-04-03T16:29:01;100732.94;;;11.17;34.98
46714;BME280;32445;51.376;10.874;2023-04-03T16:32:01;100729.53;;;11.10;35.08
46714;BME280;32445;51.376;10.874;2023-04-03T16:35:02;100724.38;;;11.05;35.61
46714;BME280;32445;51.376;10.874;2023-04-03T16:38:03;100724.44;;;11.01;35.28
46714;BME280;32445;51.376;10.874;2023-04-03T16:41:03;100725.38;;;10.92;35.36
46714;BME280;32445;51.376;10.874;2023-04-03T16:44:04;100723.69;;;10.86;34.60
46714;BME280;32445;51.376;10.874;2023-04-03T16:47:07;100733.25;;;10.78;35.62
46714;BME280;32445;51.376;10.874;2023-04-03T16:50:08;100734.16;;;10.72;35.49